createdAt,value
2022-08-19T00:02:18.689Z,20.41
2022-08-19T00:04:48.996Z,20.35
2022-08-19T00:07:16.953Z,20.38
2022-08-19T00:09:44.565Z,20.37
2022-08-19T00:12:12.741Z,20.29
2022-08-19T00:14:41.876Z,20.23
2022-08-19T00:17:10.434Z,20.22
2022-08-19T00:19:38.557Z,20.19
2022-08-19T00:22:06.806Z,20.14
2022-08-19T00:24:34.460Z,20.11
2022-08-19T00:27:25.840Z,20.08
2022-08-19T00:29:52.520Z,20.05
2022-08-19T00:32:21.284Z,20.01
2022-08-19T00:34:49.035Z,19.98
2022-08-19T00:37:16.890Z,19.94
2022-08-19T00:39:44.625Z,19.97
2022-08-19T00:42:15.063Z,19.94
2022-08-19T00:44:44.176Z,19.93
2022-08-19T00:47:14.261Z,19.91
2022-08-19T00:49:52.214Z,19.88
2022-08-19T00:52:29.966Z,19.84
2022-08-19T00:54:59.452Z,19.79
2022-08-19T00:57:38.284Z,19.75
2022-08-19T01:00:12.514Z,19.74
2022-08-19T01:02:41.617Z,19.74
2022-08-19T01:05:22.289Z,19.79
2022-08-19T01:07:51.936Z,19.73
2022-08-19T01:10:24.115Z,19.73
2022-08-19T01:12:53.405Z,19.67
2022-08-19T01:15:27.614Z,19.70
2022-08-19T01:17:56.121Z,19.64
2022-08-19T01:20:26.070Z,19.62
2022-08-19T01:22:59.490Z,19.62
2022-08-19T01:25:35.854Z,19.59
2022-08-19T01:28:11.101Z,19.54
2022-08-19T01:30:39.392Z,19.58
2022-08-19T01:33:12.191Z,19.56
2022-08-19T01:35:40.877Z,19.58
2022-08-19T01:38:19.731Z,19.53
2022-08-19T01:40:47.589Z,19.56
2022-08-19T01:43:16.103Z,19.58
2022-08-19T01:45:43.873Z,19.67
2022-08-19T01:48:12.969Z,19.68
2022-08-19T01:50:40.589Z,19.77
2022-08-19T01:53:12.819Z,19.78
2022-08-19T01:55:44.278Z,19.76
2022-08-19T01:58:25.694Z,19.78
2022-08-19T02:00:53.498Z,19.74
2022-08-19T02:03:21.331Z,19.91
2022-08-19T02:05:49.534Z,19.79
2022-08-19T02:08:17.427Z,19.79
2022-08-19T02:10:45.960Z,19.79
2022-08-19T02:13:14.482Z,19.71
2022-08-19T02:15:42.587Z,19.75
2022-08-19T02:18:10.619Z,19.71
2022-08-19T02:20:39.586Z,19.66
2022-08-19T02:23:13.978Z,19.67
2022-08-19T02:25:46.119Z,19.70
2022-08-19T02:28:18.387Z,19.62
2022-08-19T02:30:48.342Z,19.60
2022-08-19T02:33:16.534Z,19.53
2022-08-19T02:35:46.627Z,19.50
2022-08-19T02:38:27.272Z,19.65
2022-08-19T02:41:10.973Z,19.68
2022-08-19T02:43:39.703Z,19.80
2022-08-19T02:46:29.763Z,19.63
2022-08-19T02:49:01.648Z,19.50
2022-08-19T02:51:34.463Z,19.45
2022-08-19T02:54:03.169Z,19.44
2022-08-19T02:56:31.828Z,19.41
2022-08-19T02:58:59.690Z,19.31
2022-08-19T03:01:33.387Z,19.31
2022-08-19T03:04:05.398Z,19.24
2022-08-19T03:06:33.050Z,19.23
2022-08-19T03:09:00.762Z,19.29
2022-08-19T03:11:33.278Z,19.26
2022-08-19T03:14:02.989Z,19.32
2022-08-19T03:16:33.471Z,19.36
2022-08-19T03:19:02.775Z,19.44
2022-08-19T03:21:33.521Z,19.44
2022-08-19T03:24:08.121Z,19.54
2022-08-19T03:26:39.160Z,19.57
2022-08-19T03:29:07.258Z,19.70
2022-08-19T03:31:45.481Z,19.69
2022-08-19T03:34:29.921Z,19.76
2022-08-19T03:37:04.491Z,19.76
2022-08-19T03:39:32.363Z,19.79
2022-08-19T03:42:45.395Z,19.78
2022-08-19T03:44:51.584Z,19.87
2022-08-19T03:47:19.385Z,19.93
2022-08-19T03:49:47.304Z,20.01
2022-08-19T03:52:15.411Z,19.95
2022-08-19T03:54:43.174Z,19.90
2022-08-19T03:57:11.353Z,19.94
2022-08-19T03:59:39.680Z,19.96
2022-08-19T04:02:12.556Z,19.99
2022-08-19T04:04:44.190Z,20.06
2022-08-19T04:07:16.703Z,20.13
2022-08-19T04:09:44.740Z,20.18
2022-08-19T04:12:12.623Z,20.31
2022-08-19T04:14:40.582Z,20.45
2022-08-19T04:17:08.846Z,20.57
2022-08-19T04:19:37.535Z,20.71
2022-08-19T04:22:05.707Z,20.88
2022-08-19T04:24:35.762Z,21.00
2022-08-19T04:27:04.083Z,21.09
2022-08-19T04:29:31.961Z,21.15
2022-08-19T04:32:08.966Z,21.17
2022-08-19T04:35:02.802Z,21.29
2022-08-19T04:37:31.838Z,21.58
2022-08-19T04:40:23.439Z,21.71
2022-08-19T04:42:51.395Z,21.85
2022-08-19T04:45:19.018Z,21.93
2022-08-19T04:47:58.975Z,21.97
2022-08-19T04:50:43.861Z,22.12
2022-08-19T04:53:12.741Z,22.21
2022-08-19T04:55:42.585Z,22.41
2022-08-19T04:58:10.312Z,22.48
2022-08-19T05:00:40.953Z,22.63
2022-08-19T05:03:09.489Z,22.83
2022-08-19T05:05:44.462Z,23.06
2022-08-19T05:08:15.239Z,23.28
2022-08-19T05:10:43.189Z,23.51
2022-08-19T05:13:11.891Z,23.70
2022-08-19T05:15:39.727Z,23.89
2022-08-19T05:18:26.131Z,23.99
2022-08-19T05:21:12.623Z,24.19
2022-08-19T05:23:41.479Z,24.32
2022-08-19T05:26:11.462Z,24.43
2022-08-19T05:28:39.169Z,24.62
2022-08-19T05:31:06.790Z,24.80
2022-08-19T05:33:34.658Z,25.00
2022-08-19T05:36:03.875Z,25.18
2022-08-19T05:38:31.500Z,25.45
2022-08-19T05:40:59.402Z,25.55
2022-08-19T05:43:27.076Z,25.73
2022-08-19T05:45:54.711Z,25.87
2022-08-19T05:48:22.483Z,25.77
2022-08-19T05:50:51.273Z,25.74
2022-08-19T05:53:20.806Z,25.81
2022-08-19T05:55:48.638Z,25.95
2022-08-19T05:58:16.361Z,25.93
2022-08-19T06:00:46.075Z,26.00
2022-08-19T06:03:14.020Z,26.08
2022-08-19T06:05:49.477Z,26.24
2022-08-19T06:08:20.839Z,26.26
2022-08-19T06:11:24.910Z,26.27
2022-08-19T06:13:59.769Z,26.30
2022-08-19T06:16:29.018Z,26.41
2022-08-19T06:18:58.047Z,26.44
2022-08-19T06:21:28.284Z,26.71
2022-08-19T06:23:57.740Z,26.82
2022-08-19T06:26:27.454Z,26.98
2022-08-19T06:28:55.455Z,27.03
2022-08-19T06:31:29.140Z,26.97
2022-08-19T06:33:57.049Z,26.99
2022-08-19T06:36:32.231Z,26.90
2022-08-19T06:39:05.236Z,27.04
2022-08-19T06:41:39.468Z,27.00
2022-08-19T06:44:13.286Z,26.93
2022-08-19T06:46:42.358Z,26.97
2022-08-19T06:49:14.597Z,27.16
2022-08-19T06:51:48.693Z,27.15
2022-08-19T06:54:19.812Z,27.17
2022-08-19T06:56:48.602Z,27.17
2022-08-19T06:59:23.277Z,27.24
2022-08-19T07:01:54.067Z,27.30
2022-08-19T07:04:33.716Z,27.34
2022-08-19T07:07:20.343Z,27.48
2022-08-19T07:09:51.614Z,27.90
2022-08-19T07:12:27.175Z,28.68
2022-08-19T07:14:54.777Z,28.49
2022-08-19T07:17:22.474Z,28.72
2022-08-19T07:19:51.278Z,29.01
2022-08-19T07:22:24.180Z,29.26
2022-08-19T07:24:53.597Z,29.29
2022-08-19T07:27:24.143Z,29.54
2022-08-19T07:29:57.097Z,29.78
2022-08-19T07:32:29.046Z,29.94
2022-08-19T07:34:57.561Z,30.19
2022-08-19T07:37:32.521Z,30.52
2022-08-19T07:40:02.352Z,31.49
2022-08-19T07:42:30.879Z,33.41
2022-08-19T07:44:59.866Z,35.55
2022-08-19T07:47:48.758Z,36.58
2022-08-19T07:50:19.542Z,37.87
2022-08-19T07:52:49.141Z,38.54
2022-08-19T07:55:41.264Z,38.47
2022-08-19T07:58:11.159Z,39.12
2022-08-19T08:00:39.251Z,39.21
2022-08-19T08:03:07.225Z,39.83
2022-08-19T08:05:54.017Z,39.55
2022-08-19T08:08:36.547Z,40.22
2022-08-19T08:11:07.797Z,40.66
2022-08-19T08:13:36.519Z,41.40
2022-08-19T08:16:10.272Z,41.44
2022-08-19T08:18:43.366Z,41.02
2022-08-19T08:21:18.826Z,40.60
2022-08-19T08:23:46.499Z,39.67
2022-08-19T08:26:16.100Z,40.06
2022-08-19T08:28:47.728Z,40.05
2022-08-19T08:31:16.005Z,40.17
2022-08-19T08:33:43.590Z,39.36
2022-08-19T08:36:12.520Z,39.03
2022-08-19T08:38:41.860Z,38.79
2022-08-19T08:41:29.127Z,39.43
2022-08-19T08:43:58.454Z,40.04
2022-08-19T08:46:37.393Z,40.01
2022-08-19T08:49:11.380Z,39.79
2022-08-19T08:51:44.761Z,39.78
2022-08-19T08:54:19.759Z,39.84
2022-08-19T08:56:50.443Z,40.03
2022-08-19T08:59:35.944Z,40.32
2022-08-19T09:02:03.807Z,40.16
2022-08-19T09:04:31.935Z,39.79
2022-08-19T09:07:35.208Z,40.07
2022-08-19T09:10:17.669Z,40.07
2022-08-19T09:13:01.016Z,40.19
2022-08-19T09:15:40.369Z,40.80
2022-08-19T09:18:15.380Z,41.08
2022-08-19T09:20:50.309Z,41.23
2022-08-19T09:23:18.062Z,41.24
2022-08-19T09:25:54.919Z,40.93
2022-08-19T09:28:27.217Z,41.06
2022-08-19T09:30:55.091Z,41.10
2022-08-19T09:33:23.500Z,40.69
2022-08-19T09:35:53.844Z,40.09
2022-08-19T09:38:22.749Z,39.72
2022-08-19T09:40:51.268Z,39.36
2022-08-19T09:43:33.176Z,39.58
2022-08-19T09:46:03.547Z,39.61
2022-08-19T09:48:31.260Z,39.80
2022-08-19T09:51:05.430Z,40.00
2022-08-19T09:53:33.410Z,40.13
2022-08-19T09:56:04.060Z,40.49
2022-08-19T09:58:33.069Z,40.69
2022-08-19T10:01:02.724Z,40.53
2022-08-19T10:03:32.383Z,40.48
2022-08-19T10:06:02.593Z,40.53
2022-08-19T10:08:35.134Z,40.10
2022-08-19T10:11:28.048Z,40.47
2022-08-19T10:13:53.267Z,40.17
2022-08-19T10:16:28.574Z,39.69
2022-08-19T10:18:59.298Z,39.54
2022-08-19T10:21:31.983Z,38.94
2022-08-19T10:24:04.710Z,37.72
2022-08-19T10:26:37.989Z,36.68
2022-08-19T10:29:09.179Z,35.89
2022-08-19T10:32:01.016Z,35.37
2022-08-19T10:34:28.525Z,34.91
2022-08-19T10:37:01.176Z,34.49
2022-08-19T10:39:42.455Z,33.97
2022-08-19T10:42:12.667Z,33.67
2022-08-19T10:44:40.924Z,33.83
2022-08-19T10:47:24.641Z,33.59
2022-08-19T10:50:14.572Z,33.39
2022-08-19T10:52:49.739Z,33.32
2022-08-19T10:55:41.240Z,33.16
2022-08-19T10:58:17.336Z,33.22
2022-08-19T11:00:51.774Z,33.24
2022-08-19T11:03:19.648Z,33.17
2022-08-19T11:05:47.632Z,33.38
2022-08-19T11:08:23.464Z,33.19
2022-08-19T11:10:57.778Z,33.23
2022-08-19T11:13:26.012Z,33.33
2022-08-19T11:16:08.210Z,33.42
2022-08-19T11:18:41.270Z,33.64
2022-08-19T11:21:34.175Z,33.68
2022-08-19T11:24:07.119Z,33.86
2022-08-19T11:26:37.324Z,33.80
2022-08-19T11:29:07.068Z,33.59
2022-08-19T11:31:37.122Z,33.64
2022-08-19T11:34:09.063Z,33.51
2022-08-19T11:36:40.292Z,33.56
2022-08-19T11:39:10.668Z,33.66
2022-08-19T11:41:38.329Z,33.66
2022-08-19T11:44:06.731Z,33.71
2022-08-19T11:46:34.983Z,33.82
2022-08-19T11:49:04.331Z,33.65
2022-08-19T11:51:32.628Z,33.70
2022-08-19T11:54:01.624Z,33.63
2022-08-19T11:56:29.548Z,33.49
2022-08-19T11:58:57.879Z,33.44
2022-08-19T12:01:27.371Z,33.57
2022-08-19T12:03:57.530Z,33.61
2022-08-19T12:06:30.048Z,33.53
2022-08-19T12:09:03.402Z,33.76
2022-08-19T12:11:34.720Z,33.80
2022-08-19T12:14:03.069Z,33.66
2022-08-19T12:16:33.590Z,33.74
2022-08-19T12:19:05.029Z,33.64
2022-08-19T12:21:35.889Z,33.77
2022-08-19T12:24:07.810Z,33.86
2022-08-19T12:26:52.615Z,33.72
2022-08-19T12:29:23.842Z,33.72
2022-08-19T12:31:52.595Z,33.75
2022-08-19T12:34:21.132Z,33.80
2022-08-19T12:36:50.436Z,33.77
2022-08-19T12:39:18.883Z,33.80
2022-08-19T12:41:51.506Z,33.66
2022-08-19T12:44:27.687Z,33.68
2022-08-19T12:47:00.788Z,33.65
2022-08-19T12:49:52.567Z,33.65
2022-08-19T12:52:26.093Z,33.61
2022-08-19T12:54:55.541Z,33.52
2022-08-19T12:57:32.263Z,33.55
2022-08-19T13:00:13.535Z,33.56
2022-08-19T13:02:45.144Z,33.56
2022-08-19T13:05:16.874Z,33.55
2022-08-19T13:07:45.020Z,33.58
2022-08-19T13:10:16.489Z,33.64
2022-08-19T13:12:45.711Z,33.67
2022-08-19T13:15:15.250Z,33.75
2022-08-19T13:17:43.331Z,33.80
2022-08-19T13:20:12.241Z,33.68
2022-08-19T13:22:40.400Z,33.55
2022-08-19T13:25:09.265Z,33.54
2022-08-19T13:27:37.796Z,33.49
2022-08-19T13:30:26.431Z,33.50
2022-08-19T13:33:12.490Z,33.58
2022-08-19T13:35:47.519Z,33.64
2022-08-19T13:38:19.536Z,33.54
2022-08-19T13:40:48.221Z,33.51
2022-08-19T13:43:23.118Z,33.32
2022-08-19T13:45:56.265Z,33.44
2022-08-19T13:48:26.299Z,33.31
2022-08-19T13:50:55.079Z,33.27
2022-08-19T13:53:23.131Z,33.27
2022-08-19T13:55:52.053Z,33.33
2022-08-19T13:58:20.255Z,33.34
2022-08-19T14:00:49.491Z,33.15
2022-08-19T14:03:17.427Z,33.23
2022-08-19T14:05:45.176Z,33.22
2022-08-19T14:08:15.173Z,33.26
2022-08-19T14:10:45.369Z,33.22
2022-08-19T14:13:21.656Z,33.01
2022-08-19T14:15:50.000Z,33.19
2022-08-19T14:18:19.478Z,33.14
2022-08-19T14:20:47.380Z,33.07
2022-08-19T14:23:15.685Z,33.04
2022-08-19T14:25:44.763Z,33.13
2022-08-19T14:28:12.503Z,33.12
2022-08-19T14:30:40.374Z,33.18
2022-08-19T14:33:09.488Z,33.13
2022-08-19T14:35:38.355Z,33.01
2022-08-19T14:38:07.571Z,32.93
2022-08-19T14:40:37.043Z,32.93
2022-08-19T14:43:06.153Z,32.65
2022-08-19T14:45:37.776Z,32.73
2022-08-19T14:48:07.310Z,32.69
2022-08-19T14:50:36.983Z,32.65
2022-08-19T14:53:12.599Z,32.65
2022-08-19T14:55:44.927Z,32.63
2022-08-19T14:58:29.281Z,32.66
2022-08-19T15:01:00.419Z,32.52
2022-08-19T15:03:29.766Z,32.53
2022-08-19T15:05:58.631Z,32.43
2022-08-19T15:08:28.121Z,32.35
2022-08-19T15:10:57.743Z,32.24
2022-08-19T15:13:28.205Z,32.35
2022-08-19T15:15:56.965Z,32.19
2022-08-19T15:18:25.069Z,32.19
2022-08-19T15:20:52.792Z,32.06
2022-08-19T15:23:22.231Z,31.96
2022-08-19T15:25:54.439Z,31.86
2022-08-19T15:28:26.991Z,31.81
2022-08-19T15:30:54.893Z,31.84
2022-08-19T15:33:22.842Z,31.81
2022-08-19T15:35:51.664Z,31.77
2022-08-19T15:38:22.188Z,31.73
2022-08-19T15:40:51.617Z,31.71
2022-08-19T15:43:22.247Z,31.61
2022-08-19T15:45:49.946Z,31.59
2022-08-19T15:48:18.077Z,31.57
2022-08-19T15:50:45.767Z,31.50
2022-08-19T15:53:13.505Z,31.42
2022-08-19T15:55:46.161Z,31.38
2022-08-19T15:58:34.056Z,31.33
2022-08-19T16:01:24.252Z,31.30
2022-08-19T16:04:14.986Z,31.19
2022-08-19T16:06:53.589Z,31.06
2022-08-19T16:09:27.245Z,31.05
2022-08-19T16:12:04.857Z,30.92
2022-08-19T16:14:35.334Z,30.92
2022-08-19T16:17:03.350Z,30.81
2022-08-19T16:19:32.081Z,30.63
2022-08-19T16:21:59.739Z,30.57
2022-08-19T16:24:28.628Z,30.43
2022-08-19T16:26:57.439Z,30.24
2022-08-19T16:29:33.744Z,30.26
2022-08-19T16:32:10.612Z,30.15
2022-08-19T16:34:40.261Z,30.08
2022-08-19T16:37:08.855Z,29.95
2022-08-19T16:39:36.963Z,29.91
2022-08-19T16:42:07.475Z,29.83
2022-08-19T16:44:36.686Z,29.75
2022-08-19T16:47:04.644Z,29.63
2022-08-19T16:49:52.416Z,29.49
2022-08-19T16:52:21.250Z,29.37
2022-08-19T16:54:49.308Z,29.29
2022-08-19T16:57:17.129Z,29.19
2022-08-19T16:59:48.910Z,29.12
2022-08-19T17:02:19.323Z,28.96
2022-08-19T17:04:58.527Z,28.88
2022-08-19T17:07:33.296Z,28.77
2022-08-19T17:10:03.817Z,28.61
2022-08-19T17:12:32.510Z,28.57
2022-08-19T17:15:02.702Z,28.43
2022-08-19T17:17:31.902Z,28.46
2022-08-19T17:20:00.675Z,28.37
2022-08-19T17:22:29.663Z,28.33
2022-08-19T17:24:58.696Z,28.28
2022-08-19T17:27:31.369Z,28.07
2022-08-19T17:30:04.741Z,27.99
2022-08-19T17:32:34.782Z,28.02
2022-08-19T17:35:04.703Z,27.93
2022-08-19T17:37:32.910Z,27.83
2022-08-19T17:40:01.638Z,27.69
2022-08-19T17:42:29.967Z,27.55
2022-08-19T17:45:00.929Z,27.49
2022-08-19T17:47:29.311Z,27.34
2022-08-19T17:49:57.926Z,27.24
2022-08-19T17:52:25.900Z,27.20
2022-08-19T17:54:53.629Z,27.11
2022-08-19T17:57:21.567Z,27.03
2022-08-19T17:59:49.447Z,26.96
2022-08-19T18:02:17.903Z,26.92
2022-08-19T18:04:49.829Z,26.80
2022-08-19T18:07:21.415Z,26.79
2022-08-19T18:09:52.015Z,26.76
2022-08-19T18:12:26.693Z,26.63
2022-08-19T18:14:54.836Z,26.64
2022-08-19T18:17:24.421Z,26.56
2022-08-19T18:19:52.648Z,26.45
2022-08-19T18:22:27.507Z,26.32
2022-08-19T18:24:57.920Z,26.19
2022-08-19T18:27:28.862Z,26.23
2022-08-19T18:29:59.759Z,26.11
2022-08-19T18:32:34.597Z,26.00
2022-08-19T18:35:12.012Z,25.88
2022-08-19T18:37:41.561Z,25.81
2022-08-19T18:40:30.829Z,25.88
2022-08-19T18:43:13.853Z,25.76
2022-08-19T18:46:01.776Z,25.65
2022-08-19T18:48:59.527Z,25.57
2022-08-19T18:51:30.494Z,25.48
2022-08-19T18:53:59.610Z,25.36
2022-08-19T18:56:32.216Z,25.33
2022-08-19T18:59:01.910Z,25.31
2022-08-19T19:01:34.074Z,25.33
2022-08-19T19:04:07.177Z,25.32
2022-08-19T19:06:38.106Z,25.32
2022-08-19T19:09:08.077Z,25.33
2022-08-19T19:11:39.252Z,25.37
2022-08-19T19:14:19.209Z,25.42
2022-08-19T19:17:02.089Z,25.33
2022-08-19T19:19:32.087Z,25.21
2022-08-19T19:22:02.583Z,25.22
2022-08-19T19:24:32.752Z,25.26
2022-08-19T19:27:06.675Z,25.13
2022-08-19T19:29:38.591Z,25.03
2022-08-19T19:32:08.532Z,24.94
2022-08-19T19:34:38.875Z,24.85
2022-08-19T19:37:06.862Z,24.87
2022-08-19T19:39:45.950Z,24.90
2022-08-19T19:42:20.473Z,24.74
2022-08-19T19:44:52.939Z,24.81
2022-08-19T19:47:21.586Z,24.82
2022-08-19T19:50:13.413Z,24.75
2022-08-19T19:52:40.819Z,24.60
2022-08-19T19:55:15.590Z,24.62
2022-08-19T19:57:49.562Z,24.48
2022-08-19T20:00:18.866Z,24.42
2022-08-19T20:02:50.504Z,24.36
2022-08-19T20:05:21.413Z,24.28
2022-08-19T20:08:09.882Z,24.20
2022-08-19T20:10:38.684Z,24.24
2022-08-19T20:13:08.327Z,24.19
2022-08-19T20:15:42.176Z,24.17
2022-08-19T20:18:14.418Z,24.17
2022-08-19T20:20:44.370Z,24.17
2022-08-19T20:23:13.017Z,24.11
2022-08-19T20:25:40.715Z,24.11
2022-08-19T20:28:09.013Z,24.21
2022-08-19T20:30:37.757Z,24.17
2022-08-19T20:33:09.481Z,24.08
2022-08-19T20:35:38.046Z,24.02
2022-08-19T20:38:08.624Z,24.05
2022-08-19T20:40:37.819Z,23.98
2022-08-19T20:43:13.344Z,23.93
2022-08-19T20:45:41.442Z,23.88
2022-08-19T20:48:12.242Z,23.84
2022-08-19T20:50:40.667Z,23.80
2022-08-19T20:53:14.112Z,23.75
2022-08-19T20:55:45.407Z,23.76
2022-08-19T20:58:13.745Z,23.75
2022-08-19T21:00:45.563Z,23.67
2022-08-19T21:03:18.936Z,23.66
2022-08-19T21:05:47.440Z,23.58
2022-08-19T21:08:18.260Z,23.56
2022-08-19T21:10:47.540Z,23.58
2022-08-19T21:13:16.901Z,23.54
2022-08-19T21:15:45.546Z,23.54
2022-08-19T21:18:17.598Z,23.60
2022-08-19T21:20:46.006Z,23.63
2022-08-19T21:23:21.142Z,23.65
2022-08-19T21:25:54.288Z,23.66
2022-08-19T21:28:29.997Z,23.48
2022-08-19T21:31:06.324Z,23.60
2022-08-19T21:33:34.468Z,23.51
2022-08-19T21:36:03.144Z,23.60
2022-08-19T21:38:31.928Z,23.59
2022-08-19T21:41:01.298Z,23.58
2022-08-19T21:43:35.308Z,23.54
2022-08-19T21:46:03.424Z,23.58
2022-08-19T21:48:31.113Z,23.58
2022-08-19T21:50:59.071Z,23.59
2022-08-19T21:53:31.614Z,23.54
2022-08-19T21:56:04.347Z,23.61
2022-08-19T21:58:33.581Z,23.51
2022-08-19T22:01:06.060Z,23.49
2022-08-19T22:03:36.608Z,23.44
2022-08-19T22:06:04.793Z,23.41
2022-08-19T22:08:32.544Z,23.44
2022-08-19T22:11:01.307Z,23.44
2022-08-19T22:13:30.986Z,23.48
2022-08-19T22:15:58.596Z,23.51
2022-08-19T22:18:28.209Z,23.54
2022-08-19T22:20:56.684Z,23.49
2022-08-19T22:23:24.333Z,23.46
2022-08-19T22:25:52.397Z,23.43
2022-08-19T22:28:27.891Z,23.45
2022-08-19T22:30:56.430Z,23.44
2022-08-19T22:33:25.757Z,23.39
2022-08-19T22:35:53.692Z,23.29
2022-08-19T22:38:21.881Z,23.34
2022-08-19T22:40:51.789Z,23.32
2022-08-19T22:43:26.059Z,23.43
2022-08-19T22:45:56.037Z,23.47
2022-08-19T22:48:26.728Z,23.45
2022-08-19T22:51:14.119Z,23.44
2022-08-19T22:53:45.024Z,23.50
2022-08-19T22:56:15.444Z,23.44
2022-08-19T22:58:44.831Z,23.44
2022-08-19T23:01:27.183Z,23.45
2022-08-19T23:03:56.703Z,23.41
2022-08-19T23:06:31.233Z,23.40
2022-08-19T23:09:04.674Z,23.37
2022-08-19T23:11:35.756Z,23.37
2022-08-19T23:14:10.485Z,23.38
2022-08-19T23:16:38.248Z,23.39
2022-08-19T23:19:07.433Z,23.35
2022-08-19T23:21:36.511Z,23.37
2022-08-19T23:24:05.260Z,23.35
2022-08-19T23:26:35.851Z,23.39
2022-08-19T23:29:24.382Z,23.36
2022-08-19T23:31:52.360Z,23.36
2022-08-19T23:34:20.258Z,23.35
2022-08-19T23:36:50.663Z,23.34
2022-08-19T23:39:19.262Z,23.24
2022-08-19T23:41:47.311Z,23.22
2022-08-19T23:44:15.123Z,23.14
2022-08-19T23:46:54.471Z,23.11
2022-08-19T23:49:23.164Z,23.03
2022-08-19T23:51:50.859Z,23.06
2022-08-19T23:54:18.578Z,22.93
2022-08-19T23:56:46.426Z,22.83
2022-08-19T23:59:14.076Z,22.80
